Weather History for KGCN - February, 2012

Change the Weather History Date:

Tuesday, February 28, 2012

  Actual Average Record
Temperature  
Mean Temperature 20 °F -  
Max Temperature 30 °F 42 °F 64 °F (1999)
Min Temperature 5 °F 15 °F -8 °F (1998)
Degree Days  
Heating Degree Days 45    
Moisture  
Dew Point 21 °F    
Average Humidity 89    
Maximum Humidity 100    
Minimum Humidity 30    
Precipitation  
Precipitation 0.28 in - - ()
Sea Level Pressure  
Sea Level Pressure 29.90 in    
Wind  
Wind Speed 15 mph (SW)    
Max Wind Speed 26 mph    
Max Gust Speed 38 mph    
Visibility 4 miles    
Events Fog , Snow    
Averages and records for this station are not official NWS values.
T = Trace of Precipitation, MM = Missing Value Source: NWS Daily Summary

Daily Weather History Graph

Daily Weather History Graph

Search for Another Location

Airport or City:

Trip Planner

Search our weather history database for the weather conditions in past years. The results will help you decide how hot, cold, wet, or windy it might be!

Date:

Astronomy

Feb. 28, 2012 Rise Set
Actual Time 7:00 AM MST 6:22 PM MST
Civil Twilight 6:34 AM MST 6:48 PM MST
Nautical Twilight 6:05 AM MST 7:17 PM MST
Astronomical Twilight 5:35 AM MST 7:47 PM MST
Moon 10:24 AM MST (2/28) 12:04 AM MST (2/28)
Length of Visible Light 12h 13m
Length of Day
11h 21m
Waxing Crescent, 38% of the Moon is Illuminated
Feb 28
Waxing Crescent
Feb 29
First Quarter
Mar 8
Full
Mar 14
Last Quarter
Mar 22
New

Hourly Weather History & Observations

Time (MST) Temp. Windchill Dew Point Humidity Pressure Visibility Wind Dir Wind Speed Gust Speed Precip Events Conditions
12:17 AM 30.2 °F 19.8 °F 28.4 °F 93% 29.72 in 0.5 mi SW 13.8 mph 17.3 mph 0.05 in Fog , Snow Snow
12:29 AM 30.2 °F 21.3 °F 28.4 °F 93% 29.71 in 0.8 mi SSW 10.4 mph - 0.05 in Snow Light Snow
12:54 AM 28.9 °F 21.9 °F 28.0 °F 96% 29.62 in 0.5 mi South 6.9 mph - 0.10 in Fog , Snow Snow
1:45 AM 28.4 °F 16.6 °F 26.6 °F 93% 29.71 in 0.2 mi South 16.1 mph 26.5 mph 0.08 in Fog , Snow Heavy Snow
1:54 AM 28.0 °F 18.1 °F 27.0 °F 96% 29.61 in 0.2 mi SSW 11.5 mph 20.7 mph 0.10 in Fog , Snow Heavy Snow
2:05 AM 28.4 °F 19.1 °F 26.6 °F 93% 29.71 in 0.8 mi South 10.4 mph - 0.01 in Snow Light Snow
2:14 AM 28.4 °F 17.5 °F 26.6 °F 93% 29.70 in 1.0 mi SSW 13.8 mph 21.9 mph 0.02 in Snow Light Snow
2:21 AM 28.4 °F 19.1 °F 26.6 °F 93% 29.70 in 0.8 mi SSW 10.4 mph 21.9 mph 0.03 in Snow Light Snow
2:26 AM 28.4 °F 19.1 °F 26.6 °F 93% 29.70 in 2.0 mi SSW 10.4 mph - 0.04 in Snow Light Snow
2:33 AM 28.4 °F 19.7 °F 26.6 °F 93% 29.70 in 9.0 mi SSW 9.2 mph - 0.05 in Snow Light Snow
2:51 AM 28.4 °F 16.6 °F 26.6 °F 93% 29.69 in 2.0 mi SSW 16.1 mph 21.9 mph 0.05 in Snow Light Snow
2:54 AM 28.0 °F 16.5 °F 26.1 °F 92% 29.60 in 0.8 mi SSW 15.0 mph 23.0 mph 0.05 in Snow Light Snow
3:22 AM 26.6 °F 11.1 °F 24.8 °F 93% 29.71 in 0.5 mi SW 26.5 mph 38.0 mph 0.01 in Fog , Snow Snow
3:39 AM 26.6 °F 14.3 °F 24.8 °F 93% 29.72 in 1.0 mi SW 16.1 mph 27.6 mph 0.01 in Snow Light Snow
3:47 AM 26.6 °F 14.3 °F 24.8 °F 93% 29.73 in 0.5 mi SW 16.1 mph - 0.01 in Fog , Snow Snow
3:54 AM 26.1 °F 13.1 °F 24.1 °F 92% 29.65 in 0.5 mi SSW 17.3 mph - 0.01 in Fog , Snow Snow
4:25 AM 24.8 °F 11.5 °F 24.8 °F 100% 29.74 in 1.5 mi SSW 17.3 mph 28.8 mph 0.01 in Snow Light Snow
4:28 AM 24.8 °F 11.9 °F 24.8 °F 100% 29.75 in 3.0 mi SSW 16.1 mph 25.3 mph 0.01 in Snow Light Snow
4:49 AM 24.8 °F 10.3 °F 23.0 °F 93% 29.75 in 8.0 mi SSW 20.7 mph 26.5 mph 0.01 in   Overcast
4:54 AM 24.8 °F 11.9 °F 23.0 °F 93% 29.75 in 9.0 mi SSW 16.1 mph 26.5 mph N/A   Overcast
5:19 AM 24.8 °F 11.5 °F 23.0 °F 93% 29.76 in 1.8 mi SSW 17.3 mph 28.8 mph 0.00 in Snow Light Snow
5:26 AM 24.8 °F 11.5 °F 23.0 °F 93% 29.77 in 0.8 mi SSW 17.3 mph 26.5 mph 0.00 in Snow Light Snow
5:51 AM 24.8 °F 10.0 °F 21.2 °F 86% 29.78 in 1.0 mi SSW 21.9 mph 32.2 mph 0.00 in Snow Light Snow
5:54 AM 24.1 °F 8.0 °F 21.9 °F 91% 29.75 in 1.2 mi SW 25.3 mph 35.7 mph 0.01 in Snow Light Snow
6:37 AM 23.0 °F 7.6 °F 19.4 °F 86% 29.83 in 1.8 mi SW 21.9 mph 32.2 mph 0.00 in Snow Light Snow
6:54 AM 23.0 °F 7.6 °F 19.9 °F 88% 29.82 in 1.8 mi SW 21.9 mph 28.8 mph 0.00 in Snow Light Snow
7:02 AM 23.0 °F 8.3 °F 19.4 °F 86% 29.85 in 2.5 mi SW 19.6 mph 28.8 mph 0.00 in Snow Light Snow
7:13 AM 23.0 °F 9.2 °F 19.4 °F 86% 29.86 in 3.0 mi SW 17.3 mph 25.3 mph 0.00 in Snow Light Snow
7:23 AM 23.0 °F 9.2 °F 19.4 °F 86% 29.87 in 2.0 mi SW 17.3 mph 27.6 mph 0.00 in Snow Light Snow
7:34 AM 23.0 °F 9.2 °F 19.4 °F 86% 29.88 in 4.0 mi SW 17.3 mph - 0.00 in Snow Light Snow
7:38 AM 23.0 °F 8.7 °F 19.4 °F 86% 29.88 in 1.5 mi SW 18.4 mph - 0.00 in Snow Light Snow
7:41 AM 21.2 °F 6.0 °F 19.4 °F 93% 29.88 in 0.8 mi SW 19.6 mph - 0.00 in Snow Light Snow
7:54 AM 21.9 °F 6.9 °F 19.9 °F 92% 29.89 in 0.2 mi SW 19.6 mph 26.5 mph 0.00 in Fog , Snow Snow
8:54 AM 23.0 °F 9.6 °F 21.0 °F 92% 29.97 in 0.2 mi SW 16.1 mph 25.3 mph 0.00 in Fog , Snow Snow
9:08 AM 23.0 °F 8.3 °F 21.2 °F 93% 29.96 in 1.0 mi SW 19.6 mph 29.9 mph 0.00 in Snow Light Snow
9:11 AM 23.0 °F 8.7 °F 21.2 °F 93% 29.96 in 2.0 mi SW 18.4 mph 29.9 mph 0.00 in Snow Light Snow
9:19 AM 24.8 °F 10.3 °F 21.2 °F 86% 29.97 in 3.0 mi SW 20.7 mph 25.3 mph 0.00 in Snow Light Snow
9:24 AM 24.8 °F 10.3 °F 21.2 °F 86% 29.97 in 1.8 mi SW 20.7 mph 28.8 mph 0.00 in Snow Light Snow
9:38 AM 24.8 °F 11.1 °F 21.2 °F 86% 29.98 in 3.0 mi SW 18.4 mph 25.3 mph 0.00 in Snow Light Snow
9:54 AM 24.1 °F 11.0 °F 21.9 °F 91% 29.99 in 3.0 mi SW 16.1 mph 23.0 mph 0.00 in Snow Light Snow
10:31 AM 24.8 °F 10.3 °F 21.2 °F 86% 30.02 in 10.0 mi SW 20.7 mph 25.3 mph 0.00 in   Overcast
10:54 AM 25.0 °F 10.9 °F 21.9 °F 88% 30.06 in 10.0 mi SW 19.6 mph 27.6 mph 0.00 in   Overcast
11:54 AM 25.0 °F 12.6 °F 21.9 °F 88% 30.08 in 10.0 mi SW 15.0 mph 23.0 mph 0.01 in   Overcast
12:54 PM 25.0 °F 12.2 °F 21.9 °F 88% 30.10 in 9.0 mi SW 16.1 mph 29.9 mph 0.00 in   Overcast
1:54 PM 26.1 °F 12.7 °F -2.0 °F 30% 30.09 in 10.0 mi SW 18.4 mph 27.6 mph 0.00 in Snow Light Snow
2:39 PM 26.6 °F 12.7 °F 23.0 °F 86% 30.06 in 10.0 mi SW 20.7 mph 28.8 mph 0.00 in Snow Light Snow
2:54 PM 27.0 °F 12.8 °F 23.0 °F 85% 30.09 in 9.0 mi SW 21.9 mph 28.8 mph 0.00 in Snow Light Snow
3:54 PM 27.0 °F 15.6 °F 23.0 °F 85% 30.13 in 10.0 mi SW 13.8 mph - 0.00 in   Overcast
4:54 PM 28.0 °F 19.3 °F 24.1 °F 85% 30.15 in 10.0 mi WSW 9.2 mph - 0.00 in   Overcast
5:54 PM 28.0 °F 18.6 °F 21.0 °F 75% 30.17 in 10.0 mi WSW 10.4 mph - N/A   Overcast
6:54 PM 27.0 °F 18.7 °F 21.9 °F 81% 30.19 in 10.0 mi SW 8.1 mph - N/A   Overcast
7:42 PM 24.8 °F 17.9 °F 19.4 °F 80% 30.14 in 10.0 mi WSW 5.8 mph - N/A   Scattered Clouds
7:54 PM 23.0 °F 17.0 °F 19.9 °F 88% 30.22 in 10.0 mi SW 4.6 mph - N/A   Partly Cloudy
8:54 PM 16.0 °F 8.8 °F 14.0 °F 92% 30.24 in 10.0 mi SW 4.6 mph - N/A   Partly Cloudy
9:54 PM 10.9 °F 1.4 °F 9.0 °F 92% 30.29 in 10.0 mi WSW 5.8 mph - N/A   Clear
10:54 PM 10.0 °F 0.4 °F 7.0 °F 87% 30.30 in 10.0 mi ENE 5.8 mph - N/A   Clear
11:54 PM 5.0 °F - 1.0 °F 84% 30.32 in 10.0 mi Calm Calm - N/A   Clear